createdAt,value
2022-07-28T00:00:04.711Z,94774.00
2022-07-28T00:02:35.026Z,94768.63
2022-07-28T00:05:01.742Z,94766.41
2022-07-28T00:07:30.684Z,94757.88
2022-07-28T00:10:00.515Z,94758.66
2022-07-28T00:12:28.052Z,94752.66
2022-07-28T00:14:54.751Z,94747.00
2022-07-28T00:17:21.383Z,94757.41
2022-07-28T00:19:48.038Z,94752.38
2022-07-28T00:22:14.739Z,94741.94
2022-07-28T00:24:42.787Z,94740.84
2022-07-28T00:27:09.421Z,94733.13
2022-07-28T00:29:49.197Z,94730.31
2022-07-28T00:32:17.177Z,94741.63
2022-07-28T00:34:44.076Z,94740.03
2022-07-28T00:37:13.297Z,94736.88
2022-07-28T00:39:42.824Z,94735.00
2022-07-28T00:42:09.614Z,94736.72
2022-07-28T00:44:39.069Z,94729.44
2022-07-28T00:47:05.916Z,94725.00
2022-07-28T00:49:32.786Z,94723.22
2022-07-28T00:52:00.310Z,94723.00
2022-07-28T00:54:26.977Z,94718.56
2022-07-28T00:56:55.048Z,94718.56
2022-07-28T00:59:21.719Z,94709.25
2022-07-28T01:01:49.102Z,94707.06
2022-07-28T01:04:16.924Z,94702.50
2022-07-28T01:07:01.406Z,94704.09
2022-07-28T01:09:45.119Z,94698.75
2022-07-28T01:12:22.368Z,94699.06
2022-07-28T01:14:52.697Z,94699.31
2022-07-28T01:17:27.491Z,94692.97
2022-07-28T01:20:05.680Z,94691.16
2022-07-28T01:22:40.305Z,94697.59
2022-07-28T01:25:18.007Z,94692.78
2022-07-28T01:27:54.610Z,94683.50
2022-07-28T01:30:32.941Z,94685.88
2022-07-28T01:33:09.763Z,94693.59
2022-07-28T01:35:44.067Z,94703.09
2022-07-28T01:38:13.544Z,94696.84
2022-07-28T01:40:45.380Z,94691.66
2022-07-28T01:43:18.346Z,94692.91
2022-07-28T01:45:46.781Z,94701.75
2022-07-28T01:48:17.088Z,94700.84
2022-07-28T01:50:47.301Z,94687.84
2022-07-28T01:53:16.737Z,94697.97
2022-07-28T01:55:46.187Z,94698.09
2022-07-28T01:58:14.282Z,94686.25
2022-07-28T02:00:42.718Z,94694.19
2022-07-28T02:03:12.448Z,94689.25
2022-07-28T02:05:41.390Z,94687.19
2022-07-28T02:08:09.692Z,94683.75
2022-07-28T02:10:40.952Z,94688.19
2022-07-28T02:13:10.167Z,94678.97
2022-07-28T02:15:37.827Z,94681.19
2022-07-28T02:18:06.091Z,94676.84
2022-07-28T02:20:34.645Z,94679.09
2022-07-28T02:23:01.564Z,94665.13
2022-07-28T02:25:30.739Z,94668.31
2022-07-28T02:28:01.872Z,94664.53
2022-07-28T02:30:35.854Z,94666.59
2022-07-28T02:33:06.295Z,94660.13
2022-07-28T02:35:44.960Z,94666.28
2022-07-28T02:38:14.919Z,94655.13
2022-07-28T02:40:44.571Z,94654.34
2022-07-28T02:43:20.696Z,94661.25
2022-07-28T02:45:53.450Z,94658.28
2022-07-28T02:48:24.640Z,94660.63
2022-07-28T02:50:57.716Z,94658.56
2022-07-28T02:53:25.901Z,94659.69
2022-07-28T02:55:52.833Z,94659.47
2022-07-28T02:58:23.753Z,94661.31
2022-07-28T03:00:51.839Z,94655.09
2022-07-28T03:03:18.976Z,94655.69
2022-07-28T03:05:46.169Z,94654.91
2022-07-28T03:08:14.544Z,94658.69
2022-07-28T03:10:41.930Z,94661.66
2022-07-28T03:13:08.976Z,94660.09
2022-07-28T03:15:37.426Z,94654.97
2022-07-28T03:18:06.055Z,94660.78
2022-07-28T03:20:33.196Z,94664.50
2022-07-28T03:23:00.004Z,94663.78
2022-07-28T03:25:34.934Z,94666.94
2022-07-28T03:28:06.258Z,94670.91
2022-07-28T03:30:38.678Z,94669.50
2022-07-28T03:33:05.776Z,94668.72
2022-07-28T03:35:34.167Z,94666.84
2022-07-28T03:38:08.587Z,94679.91
2022-07-28T03:40:38.771Z,94678.03
2022-07-28T03:43:08.239Z,94673.47
2022-07-28T03:45:36.540Z,94674.25
2022-07-28T03:48:08.042Z,94680.09
2022-07-28T03:50:34.984Z,94687.00
2022-07-28T03:53:04.770Z,94672.56
2022-07-28T03:55:31.488Z,94679.78
2022-07-28T03:57:59.553Z,94674.91
2022-07-28T04:00:26.271Z,94678.97
2022-07-28T04:02:53.149Z,94672.38
2022-07-28T04:05:20.059Z,94678.03
2022-07-28T04:07:46.895Z,94675.34
2022-07-28T04:10:15.169Z,94668.72
2022-07-28T04:12:49.030Z,94672.28
2022-07-28T04:15:18.700Z,94677.22
2022-07-28T04:17:48.017Z,94683.19
2022-07-28T04:20:16.431Z,94677.38
2022-07-28T04:22:43.348Z,94676.56
2022-07-28T04:25:12.521Z,94684.28
2022-07-28T04:27:39.526Z,94675.94
2022-07-28T04:30:08.889Z,94682.28
2022-07-28T04:32:38.582Z,94687.03
2022-07-28T04:35:06.286Z,94689.69
2022-07-28T04:37:33.090Z,94693.47
2022-07-28T04:39:59.836Z,94687.34
2022-07-28T04:42:26.540Z,94682.56
2022-07-28T04:44:53.217Z,94689.00
2022-07-28T04:47:20.106Z,94682.00
2022-07-28T04:49:48.117Z,94690.38
2022-07-28T04:52:15.833Z,94689.47
2022-07-28T04:54:42.590Z,94679.78
2022-07-28T04:57:12.655Z,94684.25
2022-07-28T04:59:39.724Z,94686.03
2022-07-28T05:02:06.798Z,94689.19
2022-07-28T05:04:33.508Z,94691.34
2022-07-28T05:07:11.857Z,94687.31
2022-07-28T05:09:39.796Z,94692.81
2022-07-28T05:12:07.001Z,94694.09
2022-07-28T05:14:33.674Z,94689.69
2022-07-28T05:17:00.399Z,94696.91
2022-07-28T05:19:27.127Z,94692.66
2022-07-28T05:21:53.812Z,94687.19
2022-07-28T05:24:21.821Z,94688.19
2022-07-28T05:26:48.484Z,94681.13
2022-07-28T05:29:15.136Z,94685.56
2022-07-28T05:31:41.974Z,94690.97
2022-07-28T05:34:08.767Z,94687.91
2022-07-28T05:36:35.969Z,94690.47
2022-07-28T05:39:03.037Z,94683.59
2022-07-28T05:41:31.023Z,94690.56
2022-07-28T05:43:58.435Z,94680.53
2022-07-28T05:46:25.145Z,94679.34
2022-07-28T05:48:52.955Z,94683.44
2022-07-28T05:51:19.833Z,94687.56
2022-07-28T05:53:46.734Z,94681.94
2022-07-28T05:56:13.396Z,94682.91
2022-07-28T05:58:41.413Z,94699.03
2022-07-28T06:01:08.180Z,94693.22
2022-07-28T06:03:41.534Z,94700.16
2022-07-28T06:06:14.883Z,94695.47
2022-07-28T06:08:44.732Z,94700.84
2022-07-28T06:11:17.988Z,94699.31
2022-07-28T06:13:51.610Z,94696.72
2022-07-28T06:16:20.753Z,94683.06
2022-07-28T06:18:47.839Z,94685.59
2022-07-28T06:21:14.528Z,94684.84
2022-07-28T06:23:41.254Z,94681.53
2022-07-28T06:26:07.914Z,94679.34
2022-07-28T06:28:34.672Z,94670.72
2022-07-28T06:31:02.909Z,94667.88
2022-07-28T06:33:29.637Z,94670.72
2022-07-28T06:35:57.080Z,94672.16
2022-07-28T06:38:24.014Z,94673.44
2022-07-28T06:40:50.750Z,94666.50
2022-07-28T06:43:17.811Z,94667.91
2022-07-28T06:45:45.777Z,94669.34
2022-07-28T06:48:13.826Z,94663.47
2022-07-28T06:50:41.607Z,94672.91
2022-07-28T06:53:08.895Z,94675.16
2022-07-28T06:55:37.622Z,94677.50
2022-07-28T06:58:04.958Z,94680.66
2022-07-28T07:00:32.486Z,94676.69
2022-07-28T07:03:00.967Z,94674.28
2022-07-28T07:05:32.038Z,94670.13
2022-07-28T07:07:59.728Z,94671.56
2022-07-28T07:10:26.733Z,94667.72
2022-07-28T07:12:53.487Z,94669.38
2022-07-28T07:15:20.164Z,94660.63
2022-07-28T07:17:46.911Z,94661.09
2022-07-28T07:20:14.298Z,94654.78
2022-07-28T07:22:46.707Z,94651.25
2022-07-28T07:25:14.861Z,94654.31
2022-07-28T07:27:41.545Z,94651.88
2022-07-28T07:30:09.614Z,94656.06
2022-07-28T07:32:36.506Z,94660.78
2022-07-28T07:35:03.540Z,94668.16
2022-07-28T07:37:32.471Z,94660.50
2022-07-28T07:40:01.251Z,94654.72
2022-07-28T07:42:28.275Z,94656.66
2022-07-28T07:44:55.326Z,94657.59
2022-07-28T07:47:22.061Z,94664.84
2022-07-28T07:49:48.819Z,94649.31
2022-07-28T07:52:15.834Z,94653.66
2022-07-28T07:54:42.501Z,94645.38
2022-07-28T07:57:10.661Z,94647.19
2022-07-28T07:59:37.387Z,94649.91
2022-07-28T08:02:04.742Z,94642.97
2022-07-28T08:04:31.754Z,94646.84
2022-07-28T08:07:04.706Z,94640.47
2022-07-28T08:09:32.832Z,94643.50
2022-07-28T08:11:59.838Z,94644.28
2022-07-28T08:14:27.936Z,94641.47
2022-07-28T08:16:56.650Z,94638.75
2022-07-28T08:19:23.807Z,94638.81
2022-07-28T08:21:51.530Z,94640.25
2022-07-28T08:24:32.662Z,94650.31
2022-07-28T08:26:59.883Z,94637.34
2022-07-28T08:29:27.899Z,94643.47
2022-07-28T08:31:54.609Z,94642.34
2022-07-28T08:34:29.930Z,94639.59
2022-07-28T08:37:01.041Z,94638.97
2022-07-28T08:39:29.391Z,94639.50
2022-07-28T08:42:03.101Z,94637.94
2022-07-28T08:44:38.891Z,94633.81
2022-07-28T08:47:09.716Z,94633.59
2022-07-28T08:49:39.323Z,94636.56
2022-07-28T08:52:10.210Z,94630.56
2022-07-28T08:54:40.947Z,94641.53
2022-07-28T08:57:09.365Z,94634.25
2022-07-28T08:59:38.793Z,94638.34
2022-07-28T09:02:05.843Z,94633.50
2022-07-28T09:04:37.042Z,94627.41
2022-07-28T09:07:04.292Z,94628.63
2022-07-28T09:09:31.733Z,94627.72
2022-07-28T09:11:58.697Z,94629.16
2022-07-28T09:14:25.592Z,94639.06
2022-07-28T09:16:53.773Z,94633.78
2022-07-28T09:19:20.501Z,94637.28
2022-07-28T09:21:47.257Z,94633.50
2022-07-28T09:24:32.826Z,94638.59
2022-07-28T09:27:01.147Z,94633.44
2022-07-28T09:29:27.819Z,94623.34
2022-07-28T09:31:58.479Z,94625.50
2022-07-28T09:34:25.142Z,94638.34
2022-07-28T09:36:52.349Z,94633.53
2022-07-28T09:39:30.371Z,94637.56
2022-07-28T09:41:57.036Z,94635.81
2022-07-28T09:44:26.273Z,94627.75
2022-07-28T09:46:53.354Z,94625.78
2022-07-28T09:49:28.110Z,94619.63
2022-07-28T09:52:04.098Z,94630.22
2022-07-28T09:54:30.854Z,94624.97
2022-07-28T09:56:57.595Z,94626.66
2022-07-28T09:59:24.812Z,94620.25
2022-07-28T10:01:55.544Z,94625.50
2022-07-28T10:04:32.694Z,94623.38
2022-07-28T10:07:05.534Z,94628.97
2022-07-28T10:09:33.125Z,94619.59
2022-07-28T10:12:16.807Z,94616.59
2022-07-28T10:14:43.656Z,94605.47
2022-07-28T10:17:10.534Z,94620.69
2022-07-28T10:19:40.473Z,94611.75
2022-07-28T10:22:08.292Z,94617.97
2022-07-28T10:24:38.593Z,94616.13
2022-07-28T10:27:05.821Z,94607.31
2022-07-28T10:29:32.699Z,94604.25
2022-07-28T10:32:05.197Z,94600.38
2022-07-28T10:34:36.961Z,94600.88
2022-07-28T10:37:10.680Z,94600.84
2022-07-28T10:39:41.920Z,94595.03
2022-07-28T10:42:10.968Z,94597.81
2022-07-28T10:44:37.928Z,94606.09
2022-07-28T10:47:07.519Z,94603.13
2022-07-28T10:49:35.807Z,94604.28
2022-07-28T10:52:06.745Z,94604.28
2022-07-28T10:54:49.399Z,94600.69
2022-07-28T10:57:17.898Z,94603.28
2022-07-28T10:59:58.804Z,94602.25
2022-07-28T11:02:46.356Z,94611.25
2022-07-28T11:05:39.008Z,94610.50
2022-07-28T11:08:08.104Z,94605.97
2022-07-28T11:10:50.613Z,94599.91
2022-07-28T11:13:29.215Z,94608.94
2022-07-28T11:16:17.362Z,94603.13
2022-07-28T11:19:04.740Z,94594.25
2022-07-28T11:21:39.770Z,94591.13
2022-07-28T11:24:10.175Z,94591.53
2022-07-28T11:26:45.093Z,94582.53
2022-07-28T11:29:19.924Z,94585.28
2022-07-28T11:31:56.977Z,94579.53
2022-07-28T11:34:24.919Z,94581.88
2022-07-28T11:37:03.671Z,94585.00
2022-07-28T11:39:43.027Z,94580.69
2022-07-28T11:42:28.945Z,94587.72
2022-07-28T11:44:56.953Z,94576.47
2022-07-28T11:47:24.949Z,94574.16
2022-07-28T11:50:11.731Z,94573.50
2022-07-28T11:52:39.819Z,94569.97
2022-07-28T11:55:07.018Z,94571.16
2022-07-28T11:57:41.626Z,94572.75
2022-07-28T12:00:09.422Z,94584.09
2022-07-28T12:02:36.886Z,94571.59
2022-07-28T12:05:12.632Z,94572.78
2022-07-28T12:07:45.485Z,94570.03
2022-07-28T12:13:27.845Z,94566.16
2022-07-28T12:15:54.757Z,94569.28
2022-07-28T12:18:21.943Z,94556.88
2022-07-28T12:20:53.690Z,94556.09
2022-07-28T12:23:44.126Z,94560.38
2022-07-28T12:26:28.208Z,94562.34
2022-07-28T12:28:57.081Z,94555.72
2022-07-28T12:31:30.025Z,94550.66
2022-07-28T12:33:56.947Z,94551.44
2022-07-28T12:36:24.335Z,94546.75
2022-07-28T12:38:52.078Z,94556.13
2022-07-28T12:41:19.768Z,94550.66
2022-07-28T12:43:50.993Z,94546.72
2022-07-28T12:46:21.708Z,94550.59
2022-07-28T12:48:50.741Z,94538.19
2022-07-28T12:51:30.671Z,94545.19
2022-07-28T12:54:00.004Z,94544.03
2022-07-28T12:56:26.889Z,94548.31
2022-07-28T12:59:05.019Z,94534.31
2022-07-28T13:01:47.556Z,94531.97
2022-07-28T13:04:14.827Z,94537.44
2022-07-28T13:06:42.363Z,94536.25
2022-07-28T13:09:14.847Z,94538.59
2022-07-28T13:11:47.048Z,94540.94
2022-07-28T13:14:14.817Z,94526.50
2022-07-28T13:16:41.862Z,94531.19
2022-07-28T13:19:21.024Z,94529.25
2022-07-28T13:21:57.102Z,94528.09
2022-07-28T13:24:27.387Z,94531.19
2022-07-28T13:26:54.114Z,94522.25
2022-07-28T13:29:20.919Z,94525.75
2022-07-28T13:31:47.635Z,94521.47
2022-07-28T13:34:16.259Z,94533.91
2022-07-28T13:36:43.393Z,94530.41
2022-07-28T13:39:14.110Z,94524.97
2022-07-28T13:41:48.498Z,94522.63
2022-07-28T13:44:24.863Z,94516.41
2022-07-28T13:46:51.802Z,94516.03
2022-07-28T13:49:21.552Z,94517.19
2022-07-28T13:51:48.589Z,94506.66
2022-07-28T13:54:18.507Z,94509.00
2022-07-28T13:56:45.638Z,94515.59
2022-07-28T13:59:13.657Z,94510.13
2022-07-28T14:01:42.451Z,94506.25
2022-07-28T14:04:14.783Z,94510.94
2022-07-28T14:06:45.494Z,94510.19
2022-07-28T14:09:18.623Z,94496.91
2022-07-28T14:11:50.136Z,94501.59
2022-07-28T14:14:23.884Z,94496.16
2022-07-28T14:16:52.674Z,94498.88
2022-07-28T14:19:23.477Z,94497.31
2022-07-28T14:22:12.865Z,94498.88
2022-07-28T14:24:40.259Z,94501.22
2022-07-28T14:27:06.926Z,94501.59
2022-07-28T14:29:33.674Z,94496.94
2022-07-28T14:32:00.393Z,94500.84
2022-07-28T14:34:27.112Z,94491.09
2022-07-28T14:36:56.311Z,94495.78
2022-07-28T14:39:24.334Z,94488.38
2022-07-28T14:41:51.010Z,94486.81
2022-07-28T14:44:17.885Z,94489.53
2022-07-28T14:46:51.159Z,94492.25
2022-07-28T14:49:18.006Z,94488.38
2022-07-28T14:51:45.053Z,94483.31
2022-07-28T14:54:12.546Z,94476.69
2022-07-28T14:56:41.257Z,94485.25
2022-07-28T14:59:07.822Z,94490.34
2022-07-28T15:01:36.539Z,94491.44
2022-07-28T15:04:04.045Z,94501.59
2022-07-28T15:06:31.125Z,94494.56
2022-07-28T15:08:58.414Z,94494.59
2022-07-28T15:11:26.096Z,94490.72
2022-07-28T15:13:55.459Z,94478.66
2022-07-28T15:16:22.889Z,94492.66
2022-07-28T15:18:51.316Z,94492.28
2022-07-28T15:21:18.106Z,94484.47
2022-07-28T15:23:45.502Z,94493.06
2022-07-28T15:26:12.626Z,94479.06
2022-07-28T15:28:39.578Z,94475.91
2022-07-28T15:31:08.577Z,94478.25
2022-07-28T15:33:38.939Z,94464.22
2022-07-28T15:36:14.729Z,94466.56
2022-07-28T15:38:41.658Z,94475.13
2022-07-28T15:41:14.965Z,94463.03
2022-07-28T15:43:42.111Z,94452.16
2022-07-28T15:46:11.951Z,94450.59
2022-07-28T15:48:39.874Z,94457.22
2022-07-28T15:51:07.138Z,94463.81
2022-07-28T15:53:34.318Z,94446.31
2022-07-28T15:56:01.320Z,94458.00
2022-07-28T15:58:28.053Z,94461.13
2022-07-28T16:00:54.834Z,94451.38
2022-07-28T16:03:23.099Z,94453.31
2022-07-28T16:05:50.285Z,94456.44
2022-07-28T16:08:18.024Z,94463.44
2022-07-28T16:10:49.600Z,94476.28
2022-07-28T16:13:22.688Z,94477.06
2022-07-28T16:15:58.251Z,94488.72
2022-07-28T16:18:26.334Z,94487.56
2022-07-28T16:20:53.672Z,94482.91
2022-07-28T16:23:20.544Z,94482.91
2022-07-28T16:25:47.261Z,94482.91
2022-07-28T16:28:14.117Z,94485.22
2022-07-28T16:30:41.006Z,94480.53
2022-07-28T16:33:08.427Z,94479.69
2022-07-28T16:35:36.721Z,94477.72
2022-07-28T16:38:05.209Z,94481.19
2022-07-28T16:40:32.069Z,94474.59
2022-07-28T16:43:04.223Z,94471.09
2022-07-28T16:45:31.519Z,94475.00
2022-07-28T16:47:58.770Z,94488.97
2022-07-28T16:50:25.906Z,94510.31
2022-07-28T16:52:55.610Z,94525.44
2022-07-28T16:55:24.591Z,94523.41
2022-07-28T16:57:51.517Z,94515.03
2022-07-28T17:00:18.482Z,94519.63
2022-07-28T17:02:45.232Z,94518.69
2022-07-28T17:05:13.538Z,94516.31
2022-07-28T17:07:45.922Z,94520.09
2022-07-28T17:10:20.445Z,94520.00
2022-07-28T17:12:49.788Z,94526.50
2022-07-28T17:15:22.154Z,94527.59
2022-07-28T17:17:50.303Z,94542.19
2022-07-28T17:20:17.174Z,94537.44
2022-07-28T17:22:44.877Z,94537.28
2022-07-28T17:25:35.299Z,94537.94
2022-07-28T17:27:59.901Z,94550.28
2022-07-28T17:30:30.063Z,94552.47
2022-07-28T17:32:58.845Z,94542.63
2022-07-28T17:35:31.682Z,94545.97
2022-07-28T17:38:03.530Z,94548.59
2022-07-28T17:40:30.663Z,94562.16
2022-07-28T17:42:57.493Z,94555.91
2022-07-28T17:45:25.797Z,94562.00
2022-07-28T17:47:52.628Z,94567.38
2022-07-28T17:50:20.111Z,94565.19
2022-07-28T17:52:46.849Z,94554.47
2022-07-28T17:55:40.816Z,94551.16
2022-07-28T17:58:27.879Z,94556.19
2022-07-28T18:01:11.119Z,94555.09
2022-07-28T18:03:58.024Z,94542.78
2022-07-28T18:06:29.310Z,94544.47
2022-07-28T18:08:56.716Z,94542.28
2022-07-28T18:11:23.451Z,94532.81
2022-07-28T18:14:03.701Z,94543.03
2022-07-28T18:16:34.520Z,94538.19
2022-07-28T18:19:01.637Z,94541.03
2022-07-28T18:21:28.382Z,94535.31
2022-07-28T18:23:55.189Z,94528.19
2022-07-28T18:26:22.229Z,94530.50
2022-07-28T18:28:49.068Z,94532.66
2022-07-28T18:31:15.807Z,94529.00
2022-07-28T18:33:44.027Z,94531.59
2022-07-28T18:36:10.723Z,94531.06
2022-07-28T18:38:37.437Z,94536.72
2022-07-28T18:41:04.163Z,94537.06
2022-07-28T18:43:31.105Z,94545.16
2022-07-28T18:45:57.869Z,94552.81
2022-07-28T18:48:25.505Z,94551.19
2022-07-28T18:50:53.703Z,94558.16
2022-07-28T18:53:20.449Z,94560.84
2022-07-28T18:55:47.330Z,94565.38
2022-07-28T18:58:14.021Z,94561.63
2022-07-28T19:00:40.716Z,94570.19
2022-07-28T19:03:07.571Z,94564.84
2022-07-28T19:05:36.369Z,94558.16
2022-07-28T19:08:05.705Z,94564.50
2022-07-28T19:10:32.596Z,94562.28
2022-07-28T19:12:59.605Z,94577.41
2022-07-28T19:15:26.601Z,94582.16
2022-07-28T19:18:11.296Z,94583.63
2022-07-28T19:20:39.122Z,94580.84
2022-07-28T19:23:07.215Z,94586.03
2022-07-28T19:25:36.196Z,94595.50
2022-07-28T19:28:03.279Z,94600.91
2022-07-28T19:30:31.892Z,94603.41
2022-07-28T19:32:58.678Z,94608.94
2022-07-28T19:35:25.692Z,94605.22
2022-07-28T19:37:52.644Z,94607.69
2022-07-28T19:40:21.083Z,94610.19
2022-07-28T19:42:48.605Z,94610.72
2022-07-28T19:45:15.565Z,94612.41
2022-07-28T19:47:42.760Z,94625.09
2022-07-28T19:50:09.807Z,94630.50
2022-07-28T19:52:37.428Z,94626.00
2022-07-28T19:55:05.510Z,94626.13
2022-07-28T19:57:34.557Z,94620.81
2022-07-28T20:00:04.588Z,94632.84
2022-07-28T20:02:38.586Z,94636.31
2022-07-28T20:05:07.091Z,94635.66
2022-07-28T20:07:33.876Z,94642.28
2022-07-28T20:10:01.037Z,94633.16
2022-07-28T20:12:32.792Z,94635.75
2022-07-28T20:17:38.487Z,94649.44
2022-07-28T20:20:06.480Z,94635.97
2022-07-28T20:22:33.185Z,94642.03
2022-07-28T20:24:59.898Z,94653.13
2022-07-28T20:27:26.731Z,94665.69
2022-07-28T20:29:53.462Z,94689.41
2022-07-28T20:32:21.555Z,94704.97
2022-07-28T20:34:48.287Z,94739.03
2022-07-28T20:37:31.382Z,94760.72
2022-07-28T20:40:02.199Z,94776.53
2022-07-28T20:42:28.924Z,94765.44
2022-07-28T20:44:55.659Z,94767.34
2022-07-28T20:47:23.715Z,94772.38
2022-07-28T20:49:50.389Z,94768.44
2022-07-28T20:52:17.117Z,94788.13
2022-07-28T20:54:43.866Z,94774.66
2022-07-28T20:57:11.086Z,94776.00
2022-07-28T20:59:37.825Z,94780.38
2022-07-28T21:02:04.663Z,94793.81
2022-07-28T21:04:32.836Z,94782.25
2022-07-28T21:07:02.240Z,94782.25
2022-07-28T21:09:31.012Z,94787.19
2022-07-28T21:14:24.344Z,94785.69
2022-07-28T21:16:51.331Z,94791.09
2022-07-28T21:19:18.214Z,94791.09
2022-07-28T21:21:46.248Z,94794.13
2022-07-28T21:24:13.154Z,94777.06
2022-07-28T21:26:41.132Z,94783.91
2022-07-28T21:32:03.543Z,94785.03
2022-07-28T21:34:34.280Z,94789.28
2022-07-28T21:37:02.687Z,94781.34
2022-07-28T21:39:29.627Z,94793.78
2022-07-28T21:41:56.515Z,94796.94
2022-07-28T21:44:23.399Z,94798.97
2022-07-28T21:46:50.588Z,94807.97
2022-07-28T21:49:17.415Z,94803.34
2022-07-28T21:51:45.692Z,94793.56
2022-07-28T21:54:14.338Z,94819.50
2022-07-28T21:56:41.056Z,94814.34
2022-07-28T21:59:07.721Z,94820.50
2022-07-28T22:01:34.836Z,94823.00
2022-07-28T22:04:01.649Z,94831.31
2022-07-28T22:06:28.388Z,94831.44
2022-07-28T22:08:55.108Z,94831.59
2022-07-28T22:11:23.258Z,94841.22
2022-07-28T22:13:50.215Z,94837.75
2022-07-28T22:16:17.701Z,94843.47
2022-07-28T22:18:44.453Z,94834.50
2022-07-28T22:21:11.317Z,94831.53
2022-07-28T22:23:38.024Z,94825.91
2022-07-28T22:28:32.812Z,94826.91
2022-07-28T22:31:09.131Z,94827.19
2022-07-28T22:33:37.012Z,94820.81
2022-07-28T22:36:04.573Z,94823.16
2022-07-28T22:38:31.267Z,94822.50
2022-07-28T22:40:58.570Z,94826.41
2022-07-28T22:43:25.304Z,94825.19
2022-07-28T22:45:53.423Z,94818.22
2022-07-28T22:48:20.188Z,94815.06
2022-07-28T22:50:46.941Z,94817.97
2022-07-28T22:53:13.688Z,94822.13
2022-07-28T22:55:40.648Z,94820.44
2022-07-28T22:58:07.388Z,94818.97
2022-07-28T23:00:36.616Z,94821.81
2022-07-28T23:03:05.371Z,94823.50
2022-07-28T23:05:32.191Z,94828.75
2022-07-28T23:07:59.144Z,94836.72
2022-07-28T23:10:26.484Z,94838.16
2022-07-28T23:12:57.285Z,94838.94
2022-07-28T23:15:25.152Z,94821.22
2022-07-28T23:18:10.654Z,94827.38
2022-07-28T23:20:38.180Z,94824.22
2022-07-28T23:23:04.901Z,94832.19
2022-07-28T23:25:31.795Z,94829.19
2022-07-28T23:27:58.487Z,94833.91
2022-07-28T23:30:25.518Z,94835.78
2022-07-28T23:32:53.013Z,94842.66
2022-07-28T23:35:21.238Z,94843.44
2022-07-28T23:40:14.571Z,94851.94
2022-07-28T23:42:41.315Z,94864.69
2022-07-28T23:45:09.318Z,94862.88
2022-07-28T23:47:36.071Z,94860.75
2022-07-28T23:50:03.850Z,94867.91
2022-07-28T23:52:31.889Z,94863.66
2022-07-28T23:54:58.751Z,94859.13
2022-07-28T23:57:25.458Z,94865.69
2022-07-28T23:59:58.076Z,94862.63
